createdAt,value
2023-03-06T00:00:22.466Z,101473.94
2023-03-06T00:02:49.327Z,101467.75
2023-03-06T00:05:16.728Z,101471.09
2023-03-06T00:07:44.388Z,101470.94
2023-03-06T00:10:22.749Z,101468.34
2023-03-06T00:12:56.262Z,101464.84
2023-03-06T00:15:24.525Z,101463.19
2023-03-06T00:17:51.667Z,101466.66
2023-03-06T00:20:19.356Z,101456.28
2023-03-06T00:22:46.902Z,101457.16
2023-03-06T00:25:19.665Z,101455.44
2023-03-06T00:27:46.652Z,101457.16
2023-03-06T00:30:17.122Z,101450.22
2023-03-06T00:32:44.008Z,101453.56
2023-03-06T00:35:12.423Z,101442.19
2023-03-06T00:37:40.113Z,101445.44
2023-03-06T00:40:12.936Z,101450.44
2023-03-06T00:42:40.235Z,101440.84
2023-03-06T00:45:07.806Z,101436.53
2023-03-06T00:47:34.619Z,101427.94
2023-03-06T00:50:01.466Z,101431.44
2023-03-06T00:52:28.453Z,101427.06
2023-03-06T00:54:55.448Z,101424.41
2023-03-06T00:57:22.264Z,101420.00
2023-03-06T00:59:49.050Z,101411.13
2023-03-06T01:02:15.837Z,101406.69
2023-03-06T01:04:42.648Z,101404.84
2023-03-06T01:07:09.606Z,101402.16
2023-03-06T01:09:36.413Z,101403.72
2023-03-06T01:12:03.835Z,101394.00
2023-03-06T01:14:31.632Z,101392.13
2023-03-06T01:16:58.979Z,101385.94
2023-03-06T01:19:25.761Z,101375.38
2023-03-06T01:21:52.552Z,101374.34
2023-03-06T01:24:19.435Z,101374.19
2023-03-06T01:26:46.148Z,101369.75
2023-03-06T01:29:12.906Z,101364.47
2023-03-06T01:31:39.784Z,101360.91
2023-03-06T01:34:06.534Z,101359.22
2023-03-06T01:36:33.273Z,101354.09
2023-03-06T01:39:00.059Z,101355.66
2023-03-06T01:41:26.922Z,101349.66
2023-03-06T01:43:53.655Z,101349.59
2023-03-06T01:46:30.162Z,101346.00
2023-03-06T01:49:01.102Z,101347.63
2023-03-06T01:51:33.343Z,101346.69
2023-03-06T01:54:03.802Z,101348.34
2023-03-06T01:56:30.799Z,101347.41
2023-03-06T01:58:58.295Z,101344.78
2023-03-06T02:01:26.411Z,101338.69
2023-03-06T02:03:54.757Z,101336.84
2023-03-06T02:06:22.059Z,101333.44
2023-03-06T02:08:52.963Z,101337.63
2023-03-06T02:11:24.926Z,101323.78
2023-03-06T02:13:53.918Z,101324.63
2023-03-06T02:16:25.134Z,101320.19
2023-03-06T02:18:52.798Z,101319.31
2023-03-06T02:21:38.182Z,101313.13
2023-03-06T02:24:20.547Z,101310.47
2023-03-06T02:26:48.507Z,101309.53
2023-03-06T02:29:21.964Z,101299.91
2023-03-06T02:31:48.857Z,101299.81
2023-03-06T02:34:15.547Z,101294.56
2023-03-06T02:37:05.122Z,101277.41
2023-03-06T02:39:34.452Z,101280.56
2023-03-06T02:42:01.191Z,101275.25
2023-03-06T02:44:29.038Z,101269.13
2023-03-06T02:46:55.790Z,101264.53
2023-03-06T02:49:23.186Z,101259.34
2023-03-06T02:51:51.201Z,101258.25
2023-03-06T02:54:20.664Z,101255.66
2023-03-06T02:56:47.540Z,101250.53
2023-03-06T02:59:14.353Z,101247.00
2023-03-06T03:01:41.152Z,101241.72
2023-03-06T03:04:08.387Z,101232.25
2023-03-06T03:06:35.181Z,101238.25
2023-03-06T03:09:01.972Z,101230.41
2023-03-06T03:11:28.736Z,101225.91
2023-03-06T03:13:55.532Z,101220.56
2023-03-06T03:16:22.292Z,101219.75
2023-03-06T03:18:51.117Z,101222.25
2023-03-06T03:21:18.639Z,101221.22
2023-03-06T03:23:45.408Z,101213.47
2023-03-06T03:26:16.142Z,101216.91
2023-03-06T03:28:43.034Z,101214.16
2023-03-06T03:31:11.544Z,101214.09
2023-03-06T03:33:39.467Z,101202.84
2023-03-06T03:36:08.428Z,101205.34
2023-03-06T03:38:35.774Z,101191.41
2023-03-06T03:41:03.397Z,101186.38
2023-03-06T03:43:30.662Z,101186.97
2023-03-06T03:45:57.376Z,101182.69
2023-03-06T03:48:24.142Z,101178.28
2023-03-06T03:50:51.055Z,101179.06
2023-03-06T03:53:17.877Z,101172.97
2023-03-06T03:55:48.124Z,101168.63
2023-03-06T03:58:15.099Z,101157.31
2023-03-06T04:00:41.881Z,101166.84
2023-03-06T04:03:08.666Z,101165.03
2023-03-06T04:05:35.444Z,101164.16
2023-03-06T04:08:03.343Z,101162.44
2023-03-06T04:10:30.265Z,101151.09
2023-03-06T04:12:57.811Z,101152.81
2023-03-06T04:15:24.586Z,101147.66
2023-03-06T04:17:51.495Z,101145.88
2023-03-06T04:20:18.575Z,101146.72
2023-03-06T04:22:45.299Z,101142.41
2023-03-06T04:25:12.099Z,101137.06
2023-03-06T04:27:38.860Z,101143.25
2023-03-06T04:30:07.336Z,101143.25
2023-03-06T04:32:34.178Z,101134.50
2023-03-06T04:35:01.031Z,101132.00
2023-03-06T04:37:27.818Z,101132.84
2023-03-06T04:39:54.567Z,101131.13
2023-03-06T04:42:21.416Z,101132.00
2023-03-06T04:44:48.190Z,101125.88
2023-03-06T04:47:14.918Z,101121.50
2023-03-06T04:49:41.777Z,101125.03
2023-03-06T04:52:09.028Z,101114.66
2023-03-06T04:54:36.027Z,101110.28
2023-03-06T04:57:03.030Z,101113.78
2023-03-06T04:59:29.831Z,101102.50
2023-03-06T05:01:56.742Z,101102.59
2023-03-06T05:04:23.531Z,101108.63
2023-03-06T05:06:50.339Z,101095.59
2023-03-06T05:09:17.215Z,101091.25
2023-03-06T05:11:44.009Z,101087.81
2023-03-06T05:14:10.745Z,101087.81
2023-03-06T05:16:37.598Z,101090.41
2023-03-06T05:19:04.623Z,101086.09
2023-03-06T05:21:31.364Z,101075.69
2023-03-06T05:23:58.057Z,101077.44
2023-03-06T05:26:24.852Z,101072.28
2023-03-06T05:28:51.665Z,101075.78
2023-03-06T05:31:18.696Z,101071.38
2023-03-06T05:33:45.491Z,101073.06
2023-03-06T05:36:12.309Z,101061.78
2023-03-06T05:38:39.130Z,101065.16
2023-03-06T05:41:05.958Z,101061.66
2023-03-06T05:43:32.707Z,101059.13
2023-03-06T05:46:05.117Z,101056.44
2023-03-06T05:48:33.204Z,101052.09
2023-03-06T05:51:01.797Z,101054.56
2023-03-06T05:53:29.521Z,101055.38
2023-03-06T05:56:01.214Z,101052.78
2023-03-06T05:58:29.249Z,101043.22
2023-03-06T06:00:56.285Z,101046.66
2023-03-06T06:03:23.920Z,101048.41
2023-03-06T06:05:51.400Z,101043.22
2023-03-06T06:08:18.869Z,101038.84
2023-03-06T06:10:45.664Z,101042.38
2023-03-06T06:13:12.409Z,101038.94
2023-03-06T06:15:39.193Z,101034.72
2023-03-06T06:18:06.088Z,101035.56
2023-03-06T06:20:32.930Z,101026.94
2023-03-06T06:22:59.753Z,101023.44
2023-03-06T06:25:26.607Z,101025.16
2023-03-06T06:27:55.732Z,101032.06
2023-03-06T06:30:23.100Z,101027.69
2023-03-06T06:32:50.329Z,101023.38
2023-03-06T06:35:17.395Z,101021.66
2023-03-06T06:37:44.105Z,101019.88
2023-03-06T06:40:11.548Z,101019.84
2023-03-06T06:42:40.161Z,101014.59
2023-03-06T06:45:08.942Z,101011.97
2023-03-06T06:47:38.494Z,101003.25
2023-03-06T06:50:05.955Z,101006.72
2023-03-06T06:52:32.709Z,100999.69
2023-03-06T06:54:59.500Z,101005.78
2023-03-06T06:57:26.312Z,101004.91
2023-03-06T06:59:56.025Z,100998.72
2023-03-06T07:02:22.823Z,100996.06
2023-03-06T07:05:03.081Z,100994.34
2023-03-06T07:07:31.802Z,100991.66
2023-03-06T07:09:58.596Z,100991.66
2023-03-06T07:12:25.403Z,100990.81
2023-03-06T07:14:52.163Z,100994.19
2023-03-06T07:17:19.063Z,100983.78
2023-03-06T07:19:45.915Z,100982.00
2023-03-06T07:22:12.976Z,100982.59
2023-03-06T07:24:39.766Z,100976.41
2023-03-06T07:27:06.598Z,100967.66
2023-03-06T07:29:34.695Z,100970.09
2023-03-06T07:32:01.712Z,100962.41
2023-03-06T07:34:28.576Z,100962.28
2023-03-06T07:36:55.411Z,100965.69
2023-03-06T07:39:22.198Z,100966.41
2023-03-06T07:41:49.002Z,100966.25
2023-03-06T07:44:15.762Z,100964.31
2023-03-06T07:46:42.720Z,100963.28
2023-03-06T07:49:09.557Z,100956.13
2023-03-06T07:51:36.945Z,100957.69
2023-03-06T07:54:03.948Z,100960.03
2023-03-06T07:56:30.697Z,100955.31
2023-03-06T07:58:57.491Z,100955.72
2023-03-06T08:01:24.439Z,100951.16
2023-03-06T08:03:51.594Z,100952.63
2023-03-06T08:06:24.616Z,100949.94
2023-03-06T08:08:53.027Z,100948.00
2023-03-06T08:11:22.170Z,100948.78
2023-03-06T08:13:49.213Z,100940.84
2023-03-06T08:16:17.443Z,100942.50
2023-03-06T08:18:46.264Z,100936.16
2023-03-06T08:21:19.381Z,100931.66
2023-03-06T08:23:47.587Z,100932.19
2023-03-06T08:26:23.130Z,100931.91
2023-03-06T08:28:52.001Z,100932.50
2023-03-06T08:31:45.477Z,100931.41
2023-03-06T08:34:18.609Z,100935.78
2023-03-06T08:36:45.741Z,100939.09
2023-03-06T08:39:14.180Z,100931.13
2023-03-06T08:41:42.296Z,100932.63
2023-03-06T08:44:09.566Z,100924.66
2023-03-06T08:46:37.058Z,100923.69
2023-03-06T08:49:04.112Z,100924.53
2023-03-06T08:51:30.994Z,100917.56
2023-03-06T08:53:58.332Z,100918.47
2023-03-06T08:56:31.713Z,100920.94
2023-03-06T08:59:00.126Z,100922.56
2023-03-06T09:01:30.306Z,100920.75
2023-03-06T09:03:59.896Z,100929.41
2023-03-06T09:06:29.627Z,100920.63
2023-03-06T09:08:56.512Z,100922.44
2023-03-06T09:11:26.006Z,100916.59
2023-03-06T09:13:53.641Z,100911.84
2023-03-06T09:16:21.027Z,100913.00
2023-03-06T09:18:50.484Z,100915.81
2023-03-06T09:21:17.233Z,100908.63
2023-03-06T09:23:43.964Z,100900.94
2023-03-06T09:26:12.622Z,100910.78
2023-03-06T09:28:40.606Z,100906.66
2023-03-06T09:31:12.283Z,100910.75
2023-03-06T09:33:39.354Z,100905.06
2023-03-06T09:36:07.546Z,100897.72
2023-03-06T09:38:34.870Z,100894.78
2023-03-06T09:41:05.108Z,100891.34
2023-03-06T09:43:39.454Z,100881.25
2023-03-06T09:46:25.513Z,100889.16
2023-03-06T09:48:52.238Z,100876.38
2023-03-06T09:51:24.414Z,100878.53
2023-03-06T09:54:13.786Z,100874.19
2023-03-06T09:56:46.103Z,100872.72
2023-03-06T09:59:19.354Z,100869.25
2023-03-06T10:02:03.004Z,100868.31
2023-03-06T10:04:44.029Z,100862.63
2023-03-06T10:07:18.413Z,100859.41
2023-03-06T10:09:57.575Z,100866.84
2023-03-06T10:12:34.222Z,100869.38
2023-03-06T10:15:22.700Z,100870.69
2023-03-06T10:17:50.027Z,100865.53
2023-03-06T10:20:26.344Z,100868.56
2023-03-06T10:23:11.178Z,100858.25
2023-03-06T10:26:11.037Z,100853.03
2023-03-06T10:28:48.379Z,100855.56
2023-03-06T10:31:28.217Z,100851.69
2023-03-06T10:34:11.137Z,100851.50
2023-03-06T10:36:38.148Z,100842.47
2023-03-06T10:39:14.357Z,100847.94
2023-03-06T10:41:41.215Z,100843.66
2023-03-06T10:44:09.458Z,100836.47
2023-03-06T10:46:44.594Z,100834.16
2023-03-06T10:49:14.452Z,100825.47
2023-03-06T10:51:56.645Z,100825.19
2023-03-06T10:54:23.962Z,100825.09
2023-03-06T10:56:50.887Z,100816.97
2023-03-06T10:59:25.523Z,100818.06
2023-03-06T11:02:25.270Z,100821.44
2023-03-06T11:04:54.014Z,100813.63
2023-03-06T11:07:24.186Z,100813.16
2023-03-06T11:09:57.082Z,100820.13
2023-03-06T11:12:57.517Z,100819.75
2023-03-06T11:15:29.044Z,100811.41
2023-03-06T11:18:00.059Z,100805.13
2023-03-06T11:20:51.457Z,100805.59
2023-03-06T11:23:38.764Z,100803.72
2023-03-06T11:26:17.552Z,100801.31
2023-03-06T11:29:12.925Z,100793.41
2023-03-06T11:32:02.376Z,100788.97
2023-03-06T11:34:43.190Z,100786.16
2023-03-06T11:37:43.689Z,100781.69
2023-03-06T11:40:21.190Z,100775.84
2023-03-06T11:42:51.127Z,100769.06
2023-03-06T11:46:07.271Z,100776.44
2023-03-06T11:48:44.009Z,100768.97
2023-03-06T11:51:30.897Z,100770.81
2023-03-06T11:54:00.576Z,100765.75
2023-03-06T11:56:53.621Z,100766.50
2023-03-06T11:59:35.419Z,100763.22
2023-03-06T12:02:21.928Z,100766.91
2023-03-06T12:04:54.695Z,100767.81
2023-03-06T12:07:46.111Z,100762.09
2023-03-06T12:10:27.988Z,100767.16
2023-03-06T12:13:16.642Z,100773.09
2023-03-06T12:15:52.469Z,100764.47
2023-03-06T12:18:22.254Z,100763.88
2023-03-06T12:20:58.182Z,100754.19
2023-03-06T12:23:50.857Z,100757.25
2023-03-06T12:26:48.436Z,100748.06
2023-03-06T12:29:28.472Z,100752.16
2023-03-06T12:32:08.674Z,100752.34
2023-03-06T12:35:06.362Z,100746.44
2023-03-06T12:37:48.491Z,100749.22
2023-03-06T12:40:50.472Z,100734.66
2023-03-06T12:43:32.969Z,100731.28
2023-03-06T12:46:08.816Z,100727.16
2023-03-06T12:48:37.491Z,100720.41
2023-03-06T12:51:08.322Z,100721.84
2023-03-06T12:53:36.635Z,100708.19
2023-03-06T12:56:04.405Z,100711.84
2023-03-06T12:58:31.131Z,100705.41
2023-03-06T13:01:13.143Z,100699.97
2023-03-06T13:04:05.167Z,100704.16
2023-03-06T13:06:49.803Z,100697.63
2023-03-06T13:09:47.894Z,100689.66
2023-03-06T13:12:55.766Z,100687.81
2023-03-06T13:15:41.234Z,100680.94
2023-03-06T13:18:23.385Z,100686.84
2023-03-06T13:20:52.633Z,100675.31
2023-03-06T13:23:35.460Z,100662.84
2023-03-06T13:26:31.033Z,100662.06
2023-03-06T13:28:58.481Z,100657.88
2023-03-06T13:31:28.453Z,100650.34
2023-03-06T13:34:25.777Z,100645.66
2023-03-06T13:36:52.570Z,100648.34
2023-03-06T13:39:19.401Z,100642.47
2023-03-06T13:41:58.400Z,100642.69
2023-03-06T13:44:25.144Z,100646.97
2023-03-06T13:47:05.444Z,100633.63
2023-03-06T13:49:33.606Z,100631.56
2023-03-06T13:52:23.245Z,100628.44
2023-03-06T13:55:24.273Z,100632.09
2023-03-06T13:58:11.018Z,100628.28
2023-03-06T14:01:07.196Z,100627.78
2023-03-06T14:03:58.710Z,100620.50
2023-03-06T14:06:34.694Z,100609.78
2023-03-06T14:09:07.329Z,100620.28
2023-03-06T14:11:36.131Z,100620.84
2023-03-06T14:14:03.373Z,100606.09
2023-03-06T14:16:49.504Z,100610.28
2023-03-06T14:19:18.778Z,100600.63
2023-03-06T14:21:45.523Z,100612.81
2023-03-06T14:24:18.129Z,100606.44
2023-03-06T14:26:52.339Z,100604.06
2023-03-06T14:29:21.667Z,100600.22
2023-03-06T14:31:53.672Z,100585.31
2023-03-06T14:34:24.677Z,100585.28
2023-03-06T14:36:54.398Z,100585.63
2023-03-06T14:39:23.620Z,100582.56
2023-03-06T14:41:50.438Z,100575.97
2023-03-06T14:44:23.191Z,100575.00
2023-03-06T14:46:55.233Z,100574.50
2023-03-06T14:49:26.376Z,100577.78
2023-03-06T14:52:02.017Z,100576.66
2023-03-06T14:54:34.452Z,100575.06
2023-03-06T14:57:11.592Z,100567.22
2023-03-06T14:59:46.831Z,100566.00
2023-03-06T15:02:20.596Z,100571.78
2023-03-06T15:04:51.832Z,100568.69
2023-03-06T15:07:37.492Z,100558.72
2023-03-06T15:10:10.546Z,100559.41
2023-03-06T15:12:38.948Z,100540.19
2023-03-06T15:15:10.430Z,100542.06
2023-03-06T15:17:42.468Z,100531.59
2023-03-06T15:20:54.605Z,100526.53
2023-03-06T15:23:26.409Z,100514.28
2023-03-06T15:26:18.822Z,100518.94
2023-03-06T15:28:47.534Z,100505.94
2023-03-06T15:31:24.037Z,100491.25
2023-03-06T15:34:11.676Z,100495.03
2023-03-06T15:36:43.914Z,100492.69
2023-03-06T15:39:34.213Z,100480.06
2023-03-06T15:42:21.996Z,100478.59
2023-03-06T15:44:54.904Z,100474.69
2023-03-06T15:47:23.079Z,100456.28
2023-03-06T15:49:52.638Z,100471.56
2023-03-06T15:52:23.272Z,100474.13
2023-03-06T15:54:51.288Z,100470.28
2023-03-06T15:57:27.023Z,100458.63
2023-03-06T15:59:56.335Z,100459.28
2023-03-06T16:02:24.452Z,100457.88
2023-03-06T16:04:52.270Z,100461.16
2023-03-06T16:07:19.279Z,100447.78
2023-03-06T16:09:46.081Z,100440.00
2023-03-06T16:12:18.123Z,100444.50
2023-03-06T16:14:47.369Z,100441.50
2023-03-06T16:17:14.950Z,100436.94
2023-03-06T16:19:42.238Z,100443.84
2023-03-06T16:22:09.049Z,100444.00
2023-03-06T16:24:35.818Z,100442.81
2023-03-06T16:27:03.153Z,100444.22
2023-03-06T16:29:30.346Z,100426.00
2023-03-06T16:31:58.810Z,100430.28
2023-03-06T16:34:25.908Z,100415.41
2023-03-06T16:36:52.820Z,100421.50
2023-03-06T16:39:22.190Z,100416.44
2023-03-06T16:41:50.326Z,100411.56
2023-03-06T16:44:17.089Z,100404.09
2023-03-06T16:46:46.023Z,100418.75
2023-03-06T16:49:24.720Z,100412.78
2023-03-06T16:51:53.105Z,100421.19
2023-03-06T16:54:20.321Z,100422.97
2023-03-06T16:56:47.119Z,100424.25
2023-03-06T16:59:14.123Z,100425.19
2023-03-06T17:01:44.818Z,100411.53
2023-03-06T17:04:11.730Z,100421.84
2023-03-06T17:06:39.618Z,100414.34
2023-03-06T17:09:06.824Z,100417.03
2023-03-06T17:11:35.440Z,100413.78
2023-03-06T17:14:02.347Z,100418.25
2023-03-06T17:16:29.088Z,100415.72
2023-03-06T17:18:56.209Z,100418.59
2023-03-06T17:21:26.198Z,100411.88
2023-03-06T17:23:53.024Z,100417.28
2023-03-06T17:26:19.893Z,100418.41
2023-03-06T17:28:47.466Z,100420.53
2023-03-06T17:31:26.713Z,100418.06
2023-03-06T17:33:59.206Z,100420.19
2023-03-06T17:36:27.815Z,100413.47
2023-03-06T17:38:56.995Z,100407.75
2023-03-06T17:41:24.764Z,100412.31
2023-03-06T17:43:53.367Z,100402.97
2023-03-06T17:46:20.324Z,100409.47
2023-03-06T17:48:47.689Z,100403.47
2023-03-06T17:51:14.486Z,100411.66
2023-03-06T17:53:41.343Z,100404.91
2023-03-06T17:56:09.941Z,100407.72
2023-03-06T17:58:36.822Z,100393.13
2023-03-06T18:01:18.378Z,100404.81
2023-03-06T18:03:48.320Z,100398.00
2023-03-06T18:06:16.265Z,100394.97
2023-03-06T18:08:44.154Z,100401.03
2023-03-06T18:11:11.650Z,100403.78
2023-03-06T18:13:41.029Z,100403.03
2023-03-06T18:16:10.108Z,100397.22
2023-03-06T18:18:36.996Z,100393.69
2023-03-06T18:21:09.371Z,100404.16
2023-03-06T18:23:37.581Z,100402.59
2023-03-06T18:26:09.834Z,100400.19
2023-03-06T18:28:36.711Z,100396.72
2023-03-06T18:31:08.435Z,100399.69
2023-03-06T18:33:35.558Z,100399.00
2023-03-06T18:36:03.740Z,100393.19
2023-03-06T18:38:31.059Z,100395.94
2023-03-06T18:40:57.802Z,100394.25
2023-03-06T18:43:24.566Z,100392.22
2023-03-06T18:45:57.960Z,100396.59
2023-03-06T18:48:25.055Z,100394.16
2023-03-06T18:50:51.974Z,100390.63
2023-03-06T18:53:20.092Z,100390.78
2023-03-06T18:55:51.262Z,100388.19
2023-03-06T18:58:19.312Z,100399.53
2023-03-06T19:00:46.546Z,100389.97
2023-03-06T19:03:14.577Z,100394.31
2023-03-06T19:05:43.059Z,100389.16
2023-03-06T19:08:10.262Z,100391.84
2023-03-06T19:10:38.443Z,100384.22
2023-03-06T19:13:06.446Z,100386.81
2023-03-06T19:15:33.566Z,100384.28
2023-03-06T19:18:00.318Z,100383.63
2023-03-06T19:20:27.238Z,100381.91
2023-03-06T19:22:54.169Z,100379.31
2023-03-06T19:25:21.047Z,100382.84
2023-03-06T19:27:47.855Z,100381.09
2023-03-06T19:30:15.701Z,100373.25
2023-03-06T19:32:46.219Z,100372.66
2023-03-06T19:35:13.095Z,100378.69
2023-03-06T19:37:40.132Z,100379.03
2023-03-06T19:40:07.630Z,100372.13
2023-03-06T19:42:34.388Z,100372.88
2023-03-06T19:45:01.249Z,100366.47
2023-03-06T19:47:28.032Z,100370.00
2023-03-06T19:49:55.102Z,100374.44
2023-03-06T19:52:23.879Z,100373.59
2023-03-06T19:54:51.572Z,100371.00
2023-03-06T19:57:19.138Z,100350.63
2023-03-06T19:59:55.026Z,100366.72
2023-03-06T20:02:27.280Z,100371.31
2023-03-06T20:04:55.088Z,100367.16
2023-03-06T20:07:22.304Z,100366.50
2023-03-06T20:09:49.149Z,100358.75
2023-03-06T20:12:16.495Z,100357.97
2023-03-06T20:14:43.440Z,100352.09
2023-03-06T20:17:10.283Z,100361.91
2023-03-06T20:19:37.245Z,100340.44
2023-03-06T20:22:04.289Z,100345.81
2023-03-06T20:24:31.025Z,100351.09
2023-03-06T20:26:59.535Z,100337.28
2023-03-06T20:29:28.390Z,100346.19
2023-03-06T20:31:56.984Z,100342.84
2023-03-06T20:34:25.545Z,100348.88
2023-03-06T20:36:52.990Z,100341.22
2023-03-06T20:39:22.336Z,100344.75
2023-03-06T20:41:49.779Z,100327.97
2023-03-06T20:44:18.612Z,100345.94
2023-03-06T20:46:45.533Z,100338.38
2023-03-06T20:49:13.238Z,100340.31
2023-03-06T20:51:41.086Z,100337.78
2023-03-06T20:54:10.163Z,100333.47
2023-03-06T20:56:39.702Z,100335.38
2023-03-06T20:59:07.056Z,100338.31
2023-03-06T21:01:38.438Z,100346.63
2023-03-06T21:04:05.379Z,100346.25
2023-03-06T21:06:32.728Z,100332.88
2023-03-06T21:09:00.861Z,100329.91
2023-03-06T21:11:28.640Z,100327.78
2023-03-06T21:13:56.043Z,100332.16
2023-03-06T21:16:25.700Z,100341.78
2023-03-06T21:18:55.173Z,100329.91
2023-03-06T21:21:24.585Z,100337.72
2023-03-06T21:23:51.655Z,100339.69
2023-03-06T21:26:21.184Z,100343.44
2023-03-06T21:28:48.086Z,100334.22
2023-03-06T21:31:16.387Z,100344.78
2023-03-06T21:33:43.387Z,100344.13
2023-03-06T21:36:10.716Z,100346.91
2023-03-06T21:38:39.145Z,100341.44
2023-03-06T21:41:13.314Z,100357.66
2023-03-06T21:43:40.676Z,100351.00
2023-03-06T21:46:07.507Z,100359.97
2023-03-06T21:48:34.631Z,100358.28
2023-03-06T21:51:10.179Z,100360.03
2023-03-06T21:53:37.529Z,100360.94
2023-03-06T21:56:05.037Z,100365.34
2023-03-06T21:58:31.850Z,100362.81
2023-03-06T22:00:58.872Z,100356.13
2023-03-06T22:03:26.157Z,100371.59
2023-03-06T22:05:52.903Z,100369.97
2023-03-06T22:08:28.208Z,100372.56
2023-03-06T22:10:54.976Z,100362.31
2023-03-06T22:13:22.365Z,100363.22
2023-03-06T22:15:53.179Z,100365.81
2023-03-06T22:18:20.010Z,100361.53
2023-03-06T22:20:47.414Z,100359.06
2023-03-06T22:23:14.346Z,100362.50
2023-03-06T22:25:41.126Z,100375.63
2023-03-06T22:28:07.962Z,100366.34
2023-03-06T22:30:36.577Z,100364.63
2023-03-06T22:33:03.502Z,100364.81
2023-03-06T22:35:30.441Z,100365.69
2023-03-06T22:37:58.699Z,100383.09
2023-03-06T22:40:26.166Z,100373.06
2023-03-06T22:42:52.937Z,100378.13
2023-03-06T22:45:19.768Z,100384.06
2023-03-06T22:47:46.542Z,100378.97
2023-03-06T22:50:13.412Z,100384.69
2023-03-06T22:52:40.338Z,100381.69
2023-03-06T22:55:08.131Z,100391.69
2023-03-06T22:57:34.987Z,100384.63
2023-03-06T23:00:01.989Z,100392.81
2023-03-06T23:02:34.289Z,100399.09
2023-03-06T23:05:01.086Z,100397.00
2023-03-06T23:07:27.889Z,100404.13
2023-03-06T23:09:54.623Z,100412.19
2023-03-06T23:12:21.403Z,100427.06
2023-03-06T23:14:51.159Z,100405.63
2023-03-06T23:17:18.153Z,100409.31
2023-03-06T23:19:45.130Z,100413.75
2023-03-06T23:22:12.610Z,100407.09
2023-03-06T23:24:39.469Z,100408.09
2023-03-06T23:27:06.185Z,100417.72
2023-03-06T23:29:33.121Z,100411.84
2023-03-06T23:31:59.867Z,100404.97
2023-03-06T23:34:26.654Z,100407.75
2023-03-06T23:36:53.738Z,100410.38
2023-03-06T23:39:20.523Z,100418.25
2023-03-06T23:41:47.284Z,100409.72
2023-03-06T23:44:14.019Z,100408.16
2023-03-06T23:46:40.831Z,100409.19
2023-03-06T23:49:08.222Z,100408.28
2023-03-06T23:51:35.010Z,100404.09
2023-03-06T23:54:01.892Z,100411.06
2023-03-06T23:56:29.246Z,100413.72
2023-03-06T23:58:56.118Z,100414.59
